createdAt,value
2022-08-23T00:02:23.122Z,77.88
2022-08-23T00:05:03.428Z,78.28
2022-08-23T00:07:41.360Z,78.95
2022-08-23T00:10:13.657Z,78.27
2022-08-23T00:12:40.587Z,78.66
2022-08-23T00:15:09.797Z,79.03
2022-08-23T00:17:36.890Z,78.64
2022-08-23T00:20:08.331Z,78.76
2022-08-23T00:22:36.382Z,77.97
2022-08-23T00:25:04.702Z,78.48
2022-08-23T00:27:31.510Z,78.72
2022-08-23T00:29:58.406Z,77.49
2022-08-23T00:32:28.960Z,78.79
2022-08-23T00:34:56.672Z,78.65
2022-08-23T00:37:24.768Z,78.47
2022-08-23T00:39:52.222Z,79.41
2022-08-23T00:43:12.529Z,78.93
2022-08-23T00:46:07.627Z,78.22
2022-08-23T00:48:35.756Z,78.20
2022-08-23T00:51:16.180Z,78.32
2022-08-23T00:53:47.823Z,79.26
2022-08-23T00:56:19.921Z,78.29
2022-08-23T00:58:46.960Z,78.42
2022-08-23T01:01:14.498Z,79.45
2022-08-23T01:03:49.752Z,79.85
2022-08-23T01:06:32.533Z,80.32
2022-08-23T01:09:05.232Z,80.11
2022-08-23T01:11:43.566Z,80.21
2022-08-23T01:14:22.048Z,79.65
2022-08-23T01:16:57.528Z,78.57
2022-08-23T01:19:31.789Z,79.45
2022-08-23T01:22:24.223Z,82.82
2022-08-23T01:25:07.227Z,80.59
2022-08-23T01:27:36.018Z,80.14
2022-08-23T01:30:05.326Z,79.76
2022-08-23T01:32:36.162Z,78.37
2022-08-23T01:35:03.547Z,77.88
2022-08-23T01:37:30.148Z,79.10
2022-08-23T01:39:56.754Z,78.35
2022-08-23T01:42:23.449Z,78.40
2022-08-23T01:44:50.161Z,79.18
2022-08-23T01:47:17.397Z,78.99
2022-08-23T01:49:43.957Z,79.01
2022-08-23T01:52:10.511Z,79.73
2022-08-23T01:54:37.048Z,79.35
2022-08-23T01:57:06.288Z,77.74
2022-08-23T01:59:33.960Z,79.21
2022-08-23T02:02:00.571Z,78.05
2022-08-23T02:04:27.824Z,79.28
2022-08-23T02:06:54.361Z,79.07
2022-08-23T02:09:21.533Z,78.50
2022-08-23T02:11:49.108Z,79.50
2022-08-23T02:14:20.555Z,78.77
2022-08-23T02:17:04.046Z,79.53
2022-08-23T02:19:33.389Z,81.08
2022-08-23T02:22:00.482Z,80.54
2022-08-23T02:24:27.249Z,80.39
2022-08-23T02:26:57.196Z,80.54
2022-08-23T02:29:25.807Z,81.21
2022-08-23T02:31:53.234Z,80.73
2022-08-23T02:37:04.697Z,82.04
2022-08-23T02:39:31.652Z,81.34
2022-08-23T02:41:58.216Z,81.43
2022-08-23T02:44:24.868Z,80.92
2022-08-23T02:46:51.509Z,81.04
2022-08-23T02:49:19.167Z,81.30
2022-08-23T02:51:46.318Z,81.32
2022-08-23T02:54:13.258Z,81.87
2022-08-23T02:56:40.282Z,81.21
2022-08-23T02:59:07.598Z,81.67
2022-08-23T03:01:37.164Z,81.28
2022-08-23T03:04:06.306Z,82.26
2022-08-23T03:06:33.038Z,81.82
2022-08-23T03:08:59.993Z,81.38
2022-08-23T03:11:26.687Z,81.86
2022-08-23T03:13:54.673Z,82.14
2022-08-23T03:16:21.457Z,81.62
2022-08-23T03:18:49.093Z,81.88
2022-08-23T03:21:16.695Z,82.08
2022-08-23T03:23:43.424Z,82.44
2022-08-23T03:26:11.923Z,82.68
2022-08-23T03:28:40.729Z,82.98
2022-08-23T03:31:08.903Z,82.93
2022-08-23T03:33:35.927Z,83.28
2022-08-23T03:36:06.621Z,83.43
2022-08-23T03:38:34.385Z,84.40
2022-08-23T03:41:01.608Z,83.45
2022-08-23T03:43:28.626Z,82.85
2022-08-23T03:45:55.391Z,83.97
2022-08-23T03:48:22.631Z,84.32
2022-08-23T03:50:49.383Z,85.19
2022-08-23T03:53:16.474Z,86.08
2022-08-23T03:55:43.739Z,85.42
2022-08-23T03:58:11.497Z,84.13
2022-08-23T04:00:39.167Z,85.53
2022-08-23T04:03:06.276Z,85.06
2022-08-23T04:05:33.116Z,84.74
2022-08-23T04:08:01.567Z,85.98
2022-08-23T04:10:28.402Z,85.45
2022-08-23T04:12:55.094Z,85.63
2022-08-23T04:15:22.757Z,84.86
2022-08-23T04:17:49.323Z,85.80
2022-08-23T04:20:16.223Z,86.90
2022-08-23T04:22:42.871Z,86.59
2022-08-23T04:25:34.419Z,85.63
2022-08-23T04:27:59.807Z,84.80
2022-08-23T04:30:27.108Z,85.11
2022-08-23T04:32:53.647Z,84.38
2022-08-23T04:35:21.186Z,85.75
2022-08-23T04:37:47.748Z,84.86
2022-08-23T04:40:32.984Z,85.78
2022-08-23T04:42:59.567Z,84.55
2022-08-23T04:45:27.236Z,86.06
2022-08-23T04:47:54.412Z,85.28
2022-08-23T04:50:21.874Z,84.88
2022-08-23T04:52:48.466Z,85.89
2022-08-23T04:55:15.691Z,86.35
2022-08-23T04:57:42.833Z,86.19
2022-08-23T05:00:12.823Z,87.87
2022-08-23T05:02:39.804Z,87.15
2022-08-23T05:05:08.051Z,86.92
2022-08-23T05:07:42.523Z,87.41
2022-08-23T05:10:12.815Z,86.31
2022-08-23T05:12:40.176Z,85.38
2022-08-23T05:15:07.729Z,87.61
2022-08-23T05:17:34.264Z,86.62
2022-08-23T05:20:01.090Z,86.19
2022-08-23T05:22:27.663Z,86.07
2022-08-23T05:24:54.189Z,85.54
2022-08-23T05:27:20.724Z,86.24
2022-08-23T05:29:47.304Z,84.83
2022-08-23T05:32:13.834Z,84.79
2022-08-23T05:34:42.148Z,84.06
2022-08-23T05:37:08.688Z,84.96
2022-08-23T05:39:37.139Z,85.03
2022-08-23T05:42:05.490Z,84.14
2022-08-23T05:44:36.453Z,83.80
2022-08-23T05:47:05.135Z,84.38
2022-08-23T05:49:38.188Z,83.92
2022-08-23T05:52:06.351Z,83.71
2022-08-23T05:54:33.291Z,83.18
2022-08-23T05:56:59.986Z,83.72
2022-08-23T05:59:26.506Z,82.91
2022-08-23T06:01:53.159Z,82.41
2022-08-23T06:04:20.072Z,81.75
2022-08-23T06:06:48.331Z,82.23
2022-08-23T06:09:17.232Z,81.61
2022-08-23T06:11:45.815Z,81.03
2022-08-23T06:14:13.062Z,80.30
2022-08-23T06:16:43.818Z,80.88
2022-08-23T06:19:10.834Z,80.05
2022-08-23T06:21:38.628Z,80.34
2022-08-23T06:24:05.484Z,81.03
2022-08-23T06:26:34.724Z,79.60
2022-08-23T06:29:04.835Z,80.12
2022-08-23T06:31:47.483Z,80.29
2022-08-23T06:34:20.034Z,81.26
2022-08-23T06:36:53.691Z,77.68
2022-08-23T06:39:22.781Z,78.30
2022-08-23T06:41:50.291Z,77.40
2022-08-23T06:44:18.576Z,75.84
2022-08-23T06:46:46.727Z,75.15
2022-08-23T06:49:13.804Z,74.30
2022-08-23T06:51:43.646Z,75.49
2022-08-23T06:54:13.377Z,76.05
2022-08-23T06:56:41.286Z,74.24
2022-08-23T06:59:08.827Z,74.92
2022-08-23T07:01:52.592Z,74.54
2022-08-23T07:04:32.794Z,75.04
2022-08-23T07:07:01.592Z,73.40
2022-08-23T07:09:29.165Z,74.16
2022-08-23T07:11:56.218Z,72.47
2022-08-23T07:14:23.627Z,72.03
2022-08-23T07:16:53.237Z,72.48
2022-08-23T07:19:22.390Z,71.13
2022-08-23T07:21:56.637Z,71.86
2022-08-23T07:24:23.425Z,72.38
2022-08-23T07:26:52.198Z,74.12
2022-08-23T07:29:21.056Z,72.78
2022-08-23T07:31:56.423Z,71.82
2022-08-23T07:34:24.901Z,71.23
2022-08-23T07:36:52.928Z,72.70
2022-08-23T07:39:20.813Z,73.25
2022-08-23T07:41:47.859Z,71.21
2022-08-23T07:44:17.997Z,69.59
2022-08-23T07:46:46.272Z,68.68
2022-08-23T07:49:13.851Z,66.60
2022-08-23T07:51:42.460Z,64.98
2022-08-23T07:54:11.430Z,65.42
2022-08-23T07:56:38.100Z,64.30
2022-08-23T07:59:06.145Z,61.90
2022-08-23T08:01:32.883Z,62.16
2022-08-23T08:04:02.147Z,60.99
2022-08-23T08:06:35.178Z,60.65
2022-08-23T08:09:03.874Z,60.56
2022-08-23T08:11:35.184Z,62.82
2022-08-23T08:14:07.572Z,61.11
2022-08-23T08:16:40.983Z,60.20
2022-08-23T08:19:11.276Z,60.55
2022-08-23T08:21:41.936Z,61.43
2022-08-23T08:24:11.336Z,60.57
2022-08-23T08:26:38.084Z,60.11
2022-08-23T08:29:06.252Z,58.92
2022-08-23T08:31:32.962Z,58.86
2022-08-23T08:33:59.616Z,57.84
2022-08-23T08:36:44.491Z,57.88
2022-08-23T08:39:14.832Z,59.13
2022-08-23T08:42:04.984Z,58.77
2022-08-23T08:44:37.562Z,58.78
2022-08-23T08:47:14.008Z,59.23
2022-08-23T08:49:48.284Z,58.15
2022-08-23T08:52:25.978Z,57.88
2022-08-23T08:55:12.560Z,57.07
2022-08-23T08:57:42.501Z,56.78
2022-08-23T09:00:17.588Z,57.67
2022-08-23T09:02:45.281Z,59.02
2022-08-23T09:05:18.057Z,57.27
2022-08-23T09:07:53.164Z,57.92
2022-08-23T09:10:44.256Z,55.31
2022-08-23T09:13:23.324Z,56.09
2022-08-23T09:16:08.660Z,55.36
2022-08-23T09:18:36.148Z,55.51
2022-08-23T09:21:06.999Z,56.23
2022-08-23T09:23:36.570Z,54.98
2022-08-23T09:26:15.669Z,54.73
2022-08-23T09:28:46.045Z,55.71
2022-08-23T09:31:35.855Z,54.75
2022-08-23T09:34:02.906Z,54.95
2022-08-23T09:36:34.250Z,55.06
2022-08-23T09:39:05.601Z,53.46
2022-08-23T09:41:36.733Z,54.06
2022-08-23T09:44:06.696Z,53.86
2022-08-23T09:46:42.090Z,53.67
2022-08-23T09:49:30.153Z,54.26
2022-08-23T09:52:00.684Z,52.57
2022-08-23T09:54:33.095Z,52.24
2022-08-23T09:57:06.074Z,53.93
2022-08-23T09:59:43.900Z,51.62
2022-08-23T10:02:28.333Z,51.59
2022-08-23T10:05:07.907Z,51.88
2022-08-23T10:07:43.132Z,50.39
2022-08-23T10:10:49.092Z,50.85
2022-08-23T10:13:18.226Z,50.01
2022-08-23T10:15:59.213Z,52.14
2022-08-23T10:18:39.695Z,49.74
2022-08-23T10:21:18.972Z,49.76
2022-08-23T10:23:57.249Z,49.35
2022-08-23T10:26:33.002Z,50.24
2022-08-23T10:29:36.889Z,50.18
2022-08-23T10:32:10.487Z,49.25
2022-08-23T10:34:49.898Z,47.88
2022-08-23T10:37:36.178Z,47.84
2022-08-23T10:40:04.169Z,47.25
2022-08-23T10:42:37.386Z,47.80
2022-08-23T10:45:11.364Z,50.19
2022-08-23T10:47:46.088Z,47.80
2022-08-23T10:50:20.049Z,46.98
2022-08-23T10:53:19.996Z,46.93
2022-08-23T10:56:03.241Z,45.81
2022-08-23T10:58:41.240Z,44.07
2022-08-23T11:01:09.574Z,44.23
2022-08-23T11:03:44.128Z,44.90
2022-08-23T11:06:26.711Z,43.76
2022-08-23T11:09:06.195Z,45.06
2022-08-23T11:11:43.315Z,45.02
2022-08-23T11:14:25.397Z,45.46
2022-08-23T11:16:58.497Z,45.27
2022-08-23T11:19:49.080Z,44.15
2022-08-23T11:22:17.716Z,44.86
2022-08-23T11:24:57.706Z,44.61
2022-08-23T11:27:34.783Z,45.32
2022-08-23T11:30:32.519Z,45.57
2022-08-23T11:33:08.580Z,44.59
2022-08-23T11:35:53.035Z,44.09
2022-08-23T11:38:48.215Z,43.84
2022-08-23T11:41:14.799Z,43.10
2022-08-23T11:43:44.035Z,42.50
2022-08-23T11:46:16.734Z,44.22
2022-08-23T11:48:55.697Z,44.20
2022-08-23T11:51:37.489Z,41.88
2022-08-23T11:54:46.272Z,43.26
2022-08-23T11:57:47.922Z,42.70
2022-08-23T12:00:29.228Z,42.79
2022-08-23T12:03:04.487Z,42.28
2022-08-23T12:05:34.116Z,41.37
2022-08-23T12:08:04.084Z,40.14
2022-08-23T12:10:43.396Z,39.40
2022-08-23T12:13:22.431Z,40.67
2022-08-23T12:16:16.675Z,40.08
2022-08-23T12:18:53.396Z,41.83
2022-08-23T12:21:31.202Z,42.59
2022-08-23T12:24:22.370Z,41.62
2022-08-23T12:26:59.166Z,40.28
2022-08-23T12:29:43.903Z,40.36
2022-08-23T12:32:39.506Z,41.28
2022-08-23T12:35:19.052Z,39.50
2022-08-23T12:38:03.150Z,40.65
2022-08-23T12:40:34.287Z,39.00
2022-08-23T12:43:11.799Z,40.15
2022-08-23T12:45:54.247Z,38.71
2022-08-23T12:48:25.197Z,40.41
2022-08-23T12:51:06.566Z,39.49
2022-08-23T12:53:44.781Z,39.65
2022-08-23T12:56:26.763Z,40.32
2022-08-23T12:59:04.855Z,41.05
2022-08-23T13:01:35.841Z,40.88
2022-08-23T13:04:12.829Z,41.06
2022-08-23T13:06:51.437Z,41.19
2022-08-23T13:09:36.921Z,40.37
2022-08-23T13:12:06.382Z,39.00
2022-08-23T13:14:40.418Z,39.22
2022-08-23T13:17:26.967Z,39.95
2022-08-23T13:20:02.614Z,39.77
2022-08-23T13:22:31.189Z,39.47
2022-08-23T13:25:24.613Z,39.22
2022-08-23T13:27:46.297Z,39.52
2022-08-23T13:30:12.743Z,38.59
2022-08-23T13:32:48.197Z,38.35
2022-08-23T13:35:31.722Z,38.94
2022-08-23T13:38:06.643Z,38.76
2022-08-23T13:40:41.368Z,39.60
2022-08-23T13:43:12.053Z,39.52
2022-08-23T13:45:50.443Z,40.01
2022-08-23T13:48:27.451Z,39.71
2022-08-23T13:50:54.831Z,38.47
2022-08-23T13:53:22.470Z,38.81
2022-08-23T13:55:55.127Z,38.21
2022-08-23T13:58:33.849Z,37.78
2022-08-23T14:01:02.496Z,37.73
2022-08-23T14:03:34.274Z,38.69
2022-08-23T14:06:00.840Z,37.64
2022-08-23T14:08:27.356Z,37.60
2022-08-23T14:10:54.395Z,37.57
2022-08-23T14:13:24.951Z,36.81
2022-08-23T14:15:56.712Z,37.62
2022-08-23T14:18:25.710Z,38.19
2022-08-23T14:20:52.408Z,37.23
2022-08-23T14:23:19.269Z,37.77
2022-08-23T14:25:47.293Z,38.81
2022-08-23T14:28:13.860Z,38.76
2022-08-23T14:30:40.592Z,38.92
2022-08-23T14:33:07.440Z,38.29
2022-08-23T14:35:34.116Z,37.06
2022-08-23T14:38:03.323Z,37.91
2022-08-23T14:40:30.654Z,37.84
2022-08-23T14:42:57.410Z,38.19
2022-08-23T14:45:24.115Z,39.05
2022-08-23T14:47:50.691Z,38.68
2022-08-23T14:50:17.297Z,38.63
2022-08-23T14:52:46.428Z,38.34
2022-08-23T14:55:14.770Z,36.87
2022-08-23T14:57:41.958Z,36.57
2022-08-23T15:00:13.917Z,36.98
2022-08-23T15:02:44.612Z,37.23
2022-08-23T15:05:13.238Z,37.79
2022-08-23T15:07:40.073Z,37.16
2022-08-23T15:10:09.854Z,38.27
2022-08-23T15:15:23.860Z,38.40
2022-08-23T15:18:03.755Z,38.50
2022-08-23T15:20:34.229Z,37.47
2022-08-23T15:23:01.159Z,37.67
2022-08-23T15:25:33.787Z,38.62
2022-08-23T15:28:02.087Z,38.03
2022-08-23T15:30:30.354Z,38.92
2022-08-23T15:33:00.608Z,38.30
2022-08-23T15:35:28.711Z,38.53
2022-08-23T15:37:56.635Z,38.14
2022-08-23T15:40:25.301Z,38.32
2022-08-23T15:42:52.056Z,37.47
2022-08-23T15:45:18.620Z,37.83
2022-08-23T15:47:55.662Z,38.23
2022-08-23T15:50:24.941Z,37.81
2022-08-23T15:52:52.194Z,38.65
2022-08-23T15:55:19.780Z,38.23
2022-08-23T15:57:50.425Z,39.00
2022-08-23T16:00:18.856Z,38.83
2022-08-23T16:03:12.623Z,39.82
2022-08-23T16:05:32.261Z,39.52
2022-08-23T16:07:59.871Z,39.90
2022-08-23T16:10:28.319Z,39.40
2022-08-23T16:12:55.328Z,39.24
2022-08-23T16:15:22.219Z,39.51
2022-08-23T16:17:48.807Z,39.82
2022-08-23T16:20:15.652Z,41.03
2022-08-23T16:22:42.320Z,40.16
2022-08-23T16:25:09.144Z,41.19
2022-08-23T16:27:36.497Z,40.70
2022-08-23T16:30:05.714Z,40.31
2022-08-23T16:32:32.295Z,40.38
2022-08-23T16:34:58.852Z,40.79
2022-08-23T16:37:25.761Z,40.64
2022-08-23T16:39:52.406Z,41.28
2022-08-23T16:42:19.168Z,41.68
2022-08-23T16:44:45.724Z,42.08
2022-08-23T16:47:13.119Z,40.51
2022-08-23T16:49:40.288Z,41.54
2022-08-23T16:52:07.042Z,41.43
2022-08-23T16:54:33.567Z,42.63
2022-08-23T16:57:00.409Z,41.91
2022-08-23T16:59:26.955Z,42.03
2022-08-23T17:01:57.160Z,42.11
2022-08-23T17:04:30.618Z,42.46
2022-08-23T17:06:58.684Z,43.22
2022-08-23T17:09:27.700Z,43.01
2022-08-23T17:11:55.155Z,42.99
2022-08-23T17:14:24.122Z,42.95
2022-08-23T17:16:50.955Z,43.71
2022-08-23T17:19:17.555Z,44.69
2022-08-23T17:21:44.909Z,43.10
2022-08-23T17:24:11.420Z,42.95
2022-08-23T17:26:38.051Z,44.71
2022-08-23T17:29:04.966Z,44.58
2022-08-23T17:31:31.729Z,45.05
2022-08-23T17:34:03.214Z,44.35
2022-08-23T17:36:41.112Z,44.97
2022-08-23T17:39:10.718Z,45.08
2022-08-23T17:41:40.046Z,45.28
2022-08-23T17:44:09.063Z,45.49
2022-08-23T17:46:40.850Z,45.28
2022-08-23T17:49:07.923Z,47.20
2022-08-23T17:51:36.776Z,46.96
2022-08-23T17:54:04.347Z,47.31
2022-08-23T17:56:31.015Z,48.55
2022-08-23T17:58:57.585Z,46.68
2022-08-23T18:01:24.383Z,46.97
2022-08-23T18:03:51.440Z,48.80
2022-08-23T18:06:18.574Z,47.65
2022-08-23T18:08:46.256Z,49.19
2022-08-23T18:11:14.195Z,49.37
2022-08-23T18:13:42.508Z,50.46
2022-08-23T18:16:09.197Z,53.91
2022-08-23T18:18:36.092Z,52.74
2022-08-23T18:21:07.742Z,51.13
2022-08-23T18:23:35.083Z,50.30
2022-08-23T18:26:29.754Z,51.93
2022-08-23T18:28:57.351Z,53.69
2022-08-23T18:31:24.722Z,56.18
2022-08-23T18:33:51.340Z,52.85
2022-08-23T18:36:17.955Z,54.18
2022-08-23T18:38:46.147Z,56.25
2022-08-23T18:41:16.763Z,56.12
2022-08-23T18:43:44.316Z,57.83
2022-08-23T18:46:16.668Z,58.86
2022-08-23T18:48:43.346Z,58.69
2022-08-23T18:51:19.932Z,56.75
2022-08-23T18:53:47.001Z,58.78
2022-08-23T18:56:13.586Z,59.00
2022-08-23T18:58:40.110Z,58.45
2022-08-23T19:01:27.911Z,59.45
2022-08-23T19:03:56.537Z,59.31
2022-08-23T19:06:23.926Z,60.45
2022-08-23T19:08:51.737Z,62.71
2022-08-23T19:11:20.055Z,59.62
2022-08-23T19:13:47.962Z,61.58
2022-08-23T19:16:16.126Z,61.94
2022-08-23T19:18:46.167Z,61.83
2022-08-23T19:21:18.868Z,60.84
2022-08-23T19:23:46.823Z,64.94
2022-08-23T19:26:16.405Z,60.80
2022-08-23T19:28:43.743Z,62.24
2022-08-23T19:31:12.157Z,62.40
2022-08-23T19:33:41.839Z,61.74
2022-08-23T19:36:23.642Z,62.06
2022-08-23T19:38:57.399Z,62.28
2022-08-23T19:41:24.837Z,63.30
2022-08-23T19:43:52.495Z,63.24
2022-08-23T19:46:20.368Z,62.43
2022-08-23T19:48:50.373Z,65.01
2022-08-23T19:51:21.131Z,65.69
2022-08-23T19:54:11.049Z,63.57
2022-08-23T19:56:59.823Z,65.00
2022-08-23T19:59:31.712Z,65.09
2022-08-23T20:02:00.015Z,64.57
2022-08-23T20:04:29.994Z,67.17
2022-08-23T20:06:58.017Z,65.95
2022-08-23T20:09:26.387Z,66.85
2022-08-23T20:11:52.943Z,66.35
2022-08-23T20:14:21.894Z,65.93
2022-08-23T20:16:48.964Z,67.45
2022-08-23T20:19:16.101Z,67.22
2022-08-23T20:21:43.195Z,67.33
2022-08-23T20:24:12.640Z,67.01
2022-08-23T20:26:42.366Z,67.61
2022-08-23T20:29:14.371Z,68.31
2022-08-23T20:31:49.522Z,69.14
2022-08-23T20:34:16.516Z,68.06
2022-08-23T20:36:43.660Z,69.32
2022-08-23T20:39:10.415Z,68.38
2022-08-23T20:41:38.840Z,69.51
2022-08-23T20:44:06.936Z,69.53
2022-08-23T20:46:33.719Z,69.36
2022-08-23T20:49:00.761Z,69.85
2022-08-23T20:51:28.597Z,70.26
2022-08-23T20:53:56.212Z,69.27
2022-08-23T20:56:23.559Z,70.53
2022-08-23T20:58:50.887Z,69.47
2022-08-23T21:01:18.587Z,69.10
2022-08-23T21:03:45.592Z,70.17
2022-08-23T21:06:20.131Z,70.09
2022-08-23T21:08:53.413Z,69.42
2022-08-23T21:11:22.084Z,70.28
2022-08-23T21:13:49.518Z,70.75
2022-08-23T21:16:17.310Z,69.88
2022-08-23T21:18:44.324Z,71.35
2022-08-23T21:21:11.367Z,70.01
2022-08-23T21:23:38.765Z,69.95
2022-08-23T21:26:06.493Z,70.27
2022-08-23T21:28:33.306Z,69.86
2022-08-23T21:31:15.841Z,71.00
2022-08-23T21:33:43.130Z,71.03
2022-08-23T21:36:10.291Z,71.41
2022-08-23T21:38:37.370Z,71.28
2022-08-23T21:41:07.827Z,71.04
2022-08-23T21:43:39.171Z,71.10
2022-08-23T21:46:07.300Z,71.04
2022-08-23T21:48:34.402Z,72.66
2022-08-23T21:51:01.267Z,73.03
2022-08-23T21:53:27.954Z,71.86
2022-08-23T21:55:54.494Z,72.25
2022-08-23T21:58:21.029Z,72.91
2022-08-23T22:00:48.010Z,73.59
2022-08-23T22:03:14.723Z,73.95
2022-08-23T22:05:43.732Z,73.24
2022-08-23T22:08:14.428Z,74.32
2022-08-23T22:10:48.146Z,72.98
2022-08-23T22:13:24.883Z,73.07
2022-08-23T22:15:51.503Z,74.23
2022-08-23T22:18:18.161Z,74.09
2022-08-23T22:20:44.688Z,74.04
2022-08-23T22:23:11.438Z,73.80
2022-08-23T22:25:38.085Z,72.62
2022-08-23T22:28:04.673Z,72.93
2022-08-23T22:30:31.228Z,73.49
2022-08-23T22:32:57.790Z,72.63
2022-08-23T22:35:24.375Z,73.04
2022-08-23T22:38:12.343Z,72.92
2022-08-23T22:40:37.499Z,71.91
2022-08-23T22:43:04.068Z,73.06
2022-08-23T22:45:30.620Z,72.31
2022-08-23T22:47:57.248Z,72.91
2022-08-23T22:50:23.840Z,72.83
2022-08-23T22:52:50.901Z,71.17
2022-08-23T22:55:17.737Z,70.67
2022-08-23T22:57:44.311Z,70.10
2022-08-23T23:00:11.530Z,70.70
2022-08-23T23:02:38.948Z,71.26
2022-08-23T23:05:07.944Z,69.94
2022-08-23T23:07:52.886Z,70.19
2022-08-23T23:10:19.544Z,69.05
2022-08-23T23:12:46.464Z,69.28
2022-08-23T23:15:13.166Z,69.61
2022-08-23T23:17:39.908Z,70.97
2022-08-23T23:20:25.560Z,70.51
2022-08-23T23:22:52.162Z,70.17
2022-08-23T23:25:18.974Z,70.60
2022-08-23T23:27:45.587Z,69.91
2022-08-23T23:30:12.948Z,70.71
2022-08-23T23:32:39.675Z,71.44
2022-08-23T23:35:09.446Z,71.40
2022-08-23T23:37:36.118Z,69.60
2022-08-23T23:40:03.686Z,70.85
2022-08-23T23:42:30.245Z,70.10
2022-08-23T23:44:56.768Z,69.47
2022-08-23T23:47:23.406Z,70.95
2022-08-23T23:49:50.596Z,70.28
2022-08-23T23:52:17.285Z,70.66
2022-08-23T23:54:43.902Z,70.02
2022-08-23T23:57:10.431Z,70.89
2022-08-23T23:59:37.060Z,70.23
